createdAt,value
2023-04-22T00:00:17.071Z,13.58
2023-04-22T00:02:45.691Z,13.92
2023-04-22T00:05:17.062Z,14.04
2023-04-22T00:07:49.265Z,13.86
2023-04-22T00:10:17.456Z,13.79
2023-04-22T00:12:45.637Z,13.95
2023-04-22T00:15:13.798Z,13.64
2023-04-22T00:17:42.740Z,13.77
2023-04-22T00:20:13.544Z,13.45
2023-04-22T00:22:41.684Z,13.11
2023-04-22T00:25:11.579Z,13.01
2023-04-22T00:27:39.745Z,13.06
2023-04-22T00:30:09.727Z,13.30
2023-04-22T00:32:40.140Z,13.47
2023-04-22T00:35:09.784Z,13.52
2023-04-22T00:37:38.001Z,13.58
2023-04-22T00:40:07.538Z,13.72
2023-04-22T00:42:38.870Z,13.84
2023-04-22T00:45:11.906Z,13.87
2023-04-22T00:47:43.373Z,13.82
2023-04-22T00:50:11.642Z,13.70
2023-04-22T00:52:39.807Z,13.75
2023-04-22T00:55:09.174Z,13.82
2023-04-22T00:57:39.105Z,13.83
2023-04-22T01:00:11.116Z,13.84
2023-04-22T01:02:40.163Z,13.84
2023-04-22T01:05:09.958Z,13.78
2023-04-22T01:07:38.195Z,13.78
2023-04-22T01:10:07.289Z,13.63
2023-04-22T01:12:35.540Z,13.61
2023-04-22T01:15:08.928Z,13.49
2023-04-22T01:17:37.196Z,13.55
2023-04-22T01:20:05.818Z,13.58
2023-04-22T01:22:40.316Z,12.88
2023-04-22T01:25:11.204Z,13.21
2023-04-22T01:27:40.596Z,13.43
2023-04-22T01:30:10.361Z,13.51
2023-04-22T01:32:41.245Z,13.41
2023-04-22T01:35:10.063Z,13.43
2023-04-22T01:37:38.667Z,13.42
2023-04-22T01:40:10.827Z,13.27
2023-04-22T01:42:39.253Z,13.21
2023-04-22T01:45:08.441Z,13.31
2023-04-22T01:47:36.476Z,13.42
2023-04-22T01:50:04.918Z,13.19
2023-04-22T01:52:32.983Z,13.17
2023-04-22T01:55:02.706Z,13.21
2023-04-22T01:57:34.600Z,12.89
2023-04-22T02:00:03.092Z,12.65
2023-04-22T02:02:40.598Z,12.79
2023-04-22T02:05:09.757Z,12.77
2023-04-22T02:07:38.110Z,12.97
2023-04-22T02:10:07.027Z,12.94
2023-04-22T02:12:36.761Z,12.80
2023-04-22T02:15:05.794Z,12.79
2023-04-22T02:17:34.442Z,12.93
2023-04-22T02:20:03.170Z,13.01
2023-04-22T02:22:32.408Z,13.05
2023-04-22T02:25:03.355Z,13.02
2023-04-22T02:27:31.428Z,12.83
2023-04-22T02:30:00.916Z,12.56
2023-04-22T02:32:29.136Z,12.62
2023-04-22T02:34:59.889Z,12.83
2023-04-22T02:37:27.904Z,12.64
2023-04-22T02:39:56.496Z,12.64
2023-04-22T02:42:24.561Z,12.73
2023-04-22T02:44:53.023Z,12.74
2023-04-22T02:47:25.404Z,12.59
2023-04-22T02:49:53.467Z,12.50
2023-04-22T02:52:21.893Z,12.36
2023-04-22T02:54:49.946Z,12.23
2023-04-22T02:57:18.086Z,12.07
2023-04-22T02:59:46.660Z,12.03
2023-04-22T03:02:17.433Z,11.90
2023-04-22T03:05:07.793Z,12.21
2023-04-22T03:07:36.027Z,12.47
2023-04-22T03:10:04.354Z,12.29
2023-04-22T03:12:32.362Z,11.91
2023-04-22T03:15:00.703Z,11.83
2023-04-22T03:17:31.854Z,11.97
2023-04-22T03:20:02.096Z,12.08
2023-04-22T03:22:32.278Z,12.05
2023-04-22T03:25:02.566Z,11.73
2023-04-22T03:27:31.195Z,11.86
2023-04-22T03:29:59.285Z,11.96
2023-04-22T03:32:27.464Z,11.93
2023-04-22T03:35:14.066Z,11.82
2023-04-22T03:37:43.654Z,11.93
2023-04-22T03:40:15.353Z,12.05
2023-04-22T03:42:44.106Z,12.18
2023-04-22T03:45:12.690Z,12.21
2023-04-22T03:47:46.335Z,12.14
2023-04-22T03:50:23.023Z,11.95
2023-04-22T03:52:55.520Z,12.13
2023-04-22T03:55:24.400Z,12.20
2023-04-22T03:57:54.257Z,12.34
2023-04-22T04:00:22.337Z,12.53
2023-04-22T04:03:02.291Z,12.52
2023-04-22T04:05:31.659Z,12.50
2023-04-22T04:08:01.705Z,12.54
2023-04-22T04:10:30.404Z,12.47
2023-04-22T04:13:00.524Z,12.42
2023-04-22T04:15:35.584Z,12.45
2023-04-22T04:18:04.310Z,12.27
2023-04-22T04:20:34.420Z,11.94
2023-04-22T04:23:03.960Z,11.85
2023-04-22T04:25:38.425Z,12.03
2023-04-22T04:28:17.132Z,11.69
2023-04-22T04:30:45.254Z,11.90
2023-04-22T04:33:13.348Z,11.99
2023-04-22T04:35:44.870Z,12.11
2023-04-22T04:38:19.678Z,12.13
2023-04-22T04:40:52.728Z,12.18
2023-04-22T04:43:26.196Z,12.19
2023-04-22T04:46:17.712Z,12.20
2023-04-22T04:48:48.708Z,12.03
2023-04-22T04:51:18.234Z,12.03
2023-04-22T04:53:56.908Z,12.13
2023-04-22T04:56:27.168Z,12.17
2023-04-22T04:58:56.501Z,12.11
2023-04-22T05:01:27.671Z,11.82
2023-04-22T05:04:00.752Z,11.78
2023-04-22T05:06:28.984Z,11.94
2023-04-22T05:09:04.452Z,12.10
2023-04-22T05:11:32.447Z,12.00
2023-04-22T05:14:06.827Z,12.07
2023-04-22T05:16:39.999Z,12.33
2023-04-22T05:19:09.226Z,12.42
2023-04-22T05:21:37.518Z,12.29
2023-04-22T05:24:07.589Z,12.32
2023-04-22T05:26:35.785Z,12.30
2023-04-22T05:29:10.725Z,12.44
2023-04-22T05:31:43.794Z,12.55
2023-04-22T05:34:12.511Z,12.57
2023-04-22T05:36:43.389Z,12.53
2023-04-22T05:39:13.991Z,12.56
2023-04-22T05:41:44.153Z,12.55
2023-04-22T05:44:13.675Z,12.47
2023-04-22T05:46:41.655Z,12.73
2023-04-22T05:49:10.415Z,12.80
2023-04-22T05:52:14.089Z,12.88
2023-04-22T05:55:02.819Z,12.94
2023-04-22T05:57:33.740Z,12.89
2023-04-22T06:00:06.238Z,13.08
2023-04-22T06:02:42.720Z,13.14
2023-04-22T06:05:11.481Z,13.24
2023-04-22T06:07:39.680Z,13.15
2023-04-22T06:10:10.641Z,13.20
2023-04-22T06:12:42.232Z,13.51
2023-04-22T06:15:11.805Z,13.38
2023-04-22T06:17:44.781Z,13.69
2023-04-22T06:20:14.143Z,13.72
2023-04-22T06:22:44.765Z,13.89
2023-04-22T06:25:14.199Z,13.91
2023-04-22T06:27:45.248Z,14.06
2023-04-22T06:30:14.867Z,14.40
2023-04-22T06:32:42.845Z,14.25
2023-04-22T06:35:11.245Z,14.35
2023-04-22T06:37:39.718Z,14.31
2023-04-22T06:40:10.628Z,14.44
2023-04-22T06:42:58.649Z,14.43
2023-04-22T06:45:46.845Z,14.60
2023-04-22T06:48:35.077Z,14.70
2023-04-22T06:51:23.227Z,14.38
2023-04-22T06:53:52.029Z,14.54
2023-04-22T06:56:20.204Z,14.67
2023-04-22T06:58:50.074Z,14.96
2023-04-22T07:01:19.228Z,15.08
2023-04-22T07:03:48.696Z,15.05
2023-04-22T07:06:17.675Z,15.31
2023-04-22T07:08:46.015Z,15.22
2023-04-22T07:11:14.628Z,15.27
2023-04-22T07:14:05.938Z,15.31
2023-04-22T07:16:34.916Z,15.39
2023-04-22T07:19:04.704Z,15.23
2023-04-22T07:21:33.172Z,15.33
2023-04-22T07:24:01.255Z,15.50
2023-04-22T07:26:31.713Z,15.69
2023-04-22T07:29:00.227Z,16.12
2023-04-22T07:31:30.222Z,15.64
2023-04-22T07:33:59.528Z,15.75
2023-04-22T07:36:27.991Z,16.17
2023-04-22T07:38:57.889Z,16.19
2023-04-22T07:41:26.780Z,16.47
2023-04-22T07:44:00.927Z,16.74
2023-04-22T07:46:36.119Z,17.12
2023-04-22T07:49:09.586Z,16.74
2023-04-22T07:51:43.274Z,17.63
2023-04-22T07:54:26.685Z,17.52
2023-04-22T07:57:04.408Z,17.72
2023-04-22T07:59:33.620Z,17.43
2023-04-22T08:02:08.225Z,17.71
2023-04-22T08:05:10.373Z,17.40
2023-04-22T08:07:40.473Z,17.78
2023-04-22T08:10:12.179Z,18.42
2023-04-22T08:12:42.037Z,18.32
2023-04-22T08:15:11.056Z,18.21
2023-04-22T08:17:40.473Z,18.26
2023-04-22T08:20:14.718Z,18.27
2023-04-22T08:23:00.710Z,18.34
2023-04-22T08:25:35.199Z,17.99
2023-04-22T08:28:16.913Z,18.33
2023-04-22T08:30:46.691Z,18.28
2023-04-22T08:33:18.497Z,18.27
2023-04-22T08:35:47.184Z,18.50
2023-04-22T08:38:16.006Z,19.63
2023-04-22T08:40:44.003Z,20.22
2023-04-22T08:43:13.415Z,20.53
2023-04-22T08:45:42.039Z,21.37
2023-04-22T08:48:11.354Z,20.93
2023-04-22T08:50:42.465Z,21.24
2023-04-22T08:53:10.961Z,21.44
2023-04-22T08:55:39.590Z,21.93
2023-04-22T08:58:07.484Z,22.57
2023-04-22T09:00:39.079Z,22.37
2023-04-22T09:03:08.749Z,21.70
2023-04-22T09:05:39.047Z,23.04
2023-04-22T09:08:08.943Z,22.39
2023-04-22T09:10:38.963Z,23.13
2023-04-22T09:13:08.025Z,23.18
2023-04-22T09:15:35.954Z,23.30
2023-04-22T09:18:05.683Z,23.97
2023-04-22T09:20:34.775Z,24.28
2023-04-22T09:23:06.847Z,23.88
2023-04-22T09:25:39.515Z,23.20
2023-04-22T09:28:07.899Z,23.21
2023-04-22T09:30:37.873Z,23.28
2023-04-22T09:33:08.105Z,22.94
2023-04-22T09:35:37.569Z,22.80
2023-04-22T09:38:08.958Z,22.35
2023-04-22T09:40:39.671Z,22.99
2023-04-22T09:43:09.106Z,23.76
2023-04-22T09:45:39.207Z,23.47
2023-04-22T09:48:09.177Z,23.66
2023-04-22T09:50:38.146Z,23.88
2023-04-22T09:53:08.631Z,24.04
2023-04-22T09:55:41.433Z,24.25
2023-04-22T09:58:12.199Z,25.08
2023-04-22T10:00:43.229Z,25.16
2023-04-22T10:03:11.425Z,25.52
2023-04-22T10:05:40.988Z,24.51
2023-04-22T10:08:10.868Z,24.57
2023-04-22T10:10:41.189Z,23.91
2023-04-22T10:13:09.195Z,23.98
2023-04-22T10:15:40.456Z,23.90
2023-04-22T10:18:11.971Z,24.50
2023-04-22T10:20:43.156Z,24.95
2023-04-22T10:23:15.271Z,24.75
2023-04-22T10:25:48.909Z,25.10
2023-04-22T10:28:18.589Z,25.33
2023-04-22T10:30:47.221Z,25.56
2023-04-22T10:33:40.029Z,25.59
2023-04-22T10:36:10.922Z,25.78
2023-04-22T10:38:40.692Z,25.60
2023-04-22T10:41:15.220Z,25.62
2023-04-22T10:43:45.285Z,25.14
2023-04-22T10:46:58.338Z,26.21
2023-04-22T10:49:28.668Z,26.12
2023-04-22T10:52:01.060Z,26.56
2023-04-22T10:55:00.483Z,27.00
2023-04-22T10:57:38.240Z,27.22
2023-04-22T11:00:52.384Z,27.17
2023-04-22T11:03:30.500Z,26.64
2023-04-22T11:06:16.349Z,26.91
2023-04-22T11:08:49.483Z,25.81
2023-04-22T11:11:19.721Z,26.00
2023-04-22T11:13:51.775Z,26.67
2023-04-22T11:16:23.220Z,27.18
2023-04-22T11:18:52.294Z,27.96
2023-04-22T11:21:22.409Z,27.89
2023-04-22T11:23:53.767Z,26.86
2023-04-22T11:26:36.262Z,27.02
2023-04-22T11:29:06.637Z,27.46
2023-04-22T11:31:36.517Z,26.98
2023-04-22T11:34:04.691Z,27.42
2023-04-22T11:36:32.590Z,27.76
2023-04-22T11:39:00.494Z,28.46
2023-04-22T11:41:31.646Z,27.64
2023-04-22T11:44:01.474Z,28.49
2023-04-22T11:46:38.440Z,28.15
2023-04-22T11:49:17.189Z,27.93
2023-04-22T11:51:55.573Z,27.34
2023-04-22T11:54:34.076Z,26.94
2023-04-22T11:57:03.819Z,27.15
2023-04-22T11:59:31.703Z,27.73
2023-04-22T12:02:01.063Z,26.95
2023-04-22T12:04:28.965Z,26.99
2023-04-22T12:06:56.903Z,27.44
2023-04-22T12:09:26.557Z,26.74
2023-04-22T12:11:54.474Z,26.70
2023-04-22T12:14:22.360Z,26.85
2023-04-22T12:16:51.789Z,26.76
2023-04-22T12:19:27.043Z,27.13
2023-04-22T12:21:57.430Z,27.06
2023-04-22T12:24:29.335Z,27.19
2023-04-22T12:26:58.611Z,27.29
2023-04-22T12:29:33.440Z,27.18
2023-04-22T12:32:01.531Z,27.70
2023-04-22T12:34:31.428Z,27.97
2023-04-22T12:37:03.250Z,26.94
2023-04-22T12:39:32.333Z,27.40
2023-04-22T12:42:00.382Z,27.33
2023-04-22T12:44:28.650Z,27.70
2023-04-22T12:46:56.606Z,27.89
2023-04-22T12:49:24.629Z,27.04
2023-04-22T12:51:53.967Z,26.81
2023-04-22T12:54:22.673Z,26.31
2023-04-22T12:56:50.627Z,25.78
2023-04-22T12:59:18.561Z,25.93
2023-04-22T13:01:46.445Z,25.37
2023-04-22T13:04:14.603Z,25.75
2023-04-22T13:06:44.333Z,25.53
2023-04-22T13:09:34.484Z,25.32
2023-04-22T13:12:03.111Z,24.91
2023-04-22T13:14:31.084Z,25.21
2023-04-22T13:16:59.119Z,25.15
2023-04-22T13:19:27.209Z,25.23
2023-04-22T13:21:55.258Z,24.77
2023-04-22T13:24:24.572Z,24.79
2023-04-22T13:26:52.681Z,24.85
2023-04-22T13:29:22.178Z,24.89
2023-04-22T13:31:51.840Z,24.94
2023-04-22T13:34:21.293Z,24.94
2023-04-22T13:36:52.885Z,24.77
2023-04-22T13:39:22.880Z,24.40
2023-04-22T13:41:55.344Z,24.23
2023-04-22T13:44:26.079Z,24.33
2023-04-22T13:46:53.949Z,24.58
2023-04-22T13:49:21.860Z,24.87
2023-04-22T13:51:49.745Z,23.49
2023-04-22T13:54:17.654Z,23.81
2023-04-22T13:56:47.408Z,23.77
2023-04-22T13:59:17.324Z,24.12
2023-04-22T14:01:46.095Z,24.36
2023-04-22T14:04:14.850Z,23.59
2023-04-22T14:06:43.508Z,23.59
2023-04-22T14:09:11.592Z,23.67
2023-04-22T14:11:42.971Z,23.30
2023-04-22T14:14:12.554Z,23.92
2023-04-22T14:16:42.994Z,24.36
2023-04-22T14:19:11.540Z,24.79
2023-04-22T14:21:40.150Z,24.14
2023-04-22T14:24:08.234Z,24.57
2023-04-22T14:26:36.200Z,24.87
2023-04-22T14:29:04.213Z,24.81
2023-04-22T14:31:32.729Z,24.51
2023-04-22T14:34:02.035Z,24.74
2023-04-22T14:36:32.930Z,24.51
2023-04-22T14:39:02.435Z,24.37
2023-04-22T14:41:30.490Z,24.43
2023-04-22T14:43:59.074Z,23.84
2023-04-22T14:46:27.365Z,23.22
2023-04-22T14:48:55.312Z,24.13
2023-04-22T14:51:24.990Z,24.48
2023-04-22T14:53:52.817Z,24.74
2023-04-22T14:56:25.199Z,24.53
2023-04-22T14:58:53.674Z,24.39
2023-04-22T15:01:28.650Z,24.34
2023-04-22T15:03:57.580Z,24.50
2023-04-22T15:06:27.600Z,24.46
2023-04-22T15:08:55.929Z,24.39
2023-04-22T15:11:23.918Z,24.00
2023-04-22T15:13:52.011Z,23.87
2023-04-22T15:16:20.574Z,23.99
2023-04-22T15:18:51.029Z,23.97
2023-04-22T15:21:18.966Z,23.76
2023-04-22T15:23:48.199Z,23.41
2023-04-22T15:26:16.458Z,23.79
2023-04-22T15:28:44.394Z,23.63
2023-04-22T15:31:12.446Z,23.51
2023-04-22T15:33:40.504Z,23.49
2023-04-22T15:36:09.672Z,23.20
2023-04-22T15:38:38.981Z,23.54
2023-04-22T15:41:08.364Z,23.72
2023-04-22T15:43:36.552Z,23.12
2023-04-22T15:46:04.528Z,23.10
2023-04-22T15:48:33.439Z,23.21
2023-04-22T15:51:01.356Z,23.26
2023-04-22T15:53:29.382Z,23.35
2023-04-22T15:55:58.134Z,22.94
2023-04-22T15:58:28.985Z,22.93
2023-04-22T16:01:11.434Z,23.39
2023-04-22T16:03:45.912Z,23.08
2023-04-22T16:06:14.066Z,23.25
2023-04-22T16:08:42.552Z,22.85
2023-04-22T16:11:10.711Z,22.96
2023-04-22T16:13:40.111Z,23.00
2023-04-22T16:16:08.336Z,22.90
2023-04-22T16:18:36.475Z,22.91
2023-04-22T16:21:04.788Z,22.75
2023-04-22T16:23:35.209Z,22.97
2023-04-22T16:26:04.616Z,22.98
2023-04-22T16:28:33.073Z,22.61
2023-04-22T16:31:02.908Z,22.47
2023-04-22T16:33:32.210Z,22.80
2023-04-22T16:36:01.250Z,22.76
2023-04-22T16:38:29.219Z,22.79
2023-04-22T16:40:57.224Z,22.30
2023-04-22T16:43:25.176Z,22.38
2023-04-22T16:45:53.377Z,22.20
2023-04-22T16:48:41.082Z,22.23
2023-04-22T16:51:10.365Z,22.30
2023-04-22T16:53:39.026Z,22.20
2023-04-22T16:56:12.702Z,22.10
2023-04-22T16:58:49.896Z,22.37
2023-04-22T17:01:34.231Z,22.46
2023-04-22T17:04:06.493Z,22.37
2023-04-22T17:06:35.269Z,22.03
2023-04-22T17:09:04.405Z,21.79
2023-04-22T17:11:34.190Z,22.24
2023-04-22T17:14:04.693Z,22.21
2023-04-22T17:16:35.790Z,21.88
2023-04-22T17:19:09.760Z,22.16
2023-04-22T17:21:44.607Z,22.20
2023-04-22T17:24:18.528Z,22.20
2023-04-22T17:27:02.212Z,21.88
2023-04-22T17:29:39.128Z,21.82
2023-04-22T17:32:21.026Z,22.03
2023-04-22T17:35:00.476Z,22.10
2023-04-22T17:37:42.833Z,21.93
2023-04-22T17:40:14.017Z,21.93
2023-04-22T17:42:46.331Z,21.86
2023-04-22T17:45:18.399Z,21.69
2023-04-22T17:47:48.786Z,21.73
2023-04-22T17:50:18.350Z,21.74
2023-04-22T17:52:46.691Z,21.73
2023-04-22T17:55:14.840Z,21.71
2023-04-22T17:57:43.029Z,21.56
2023-04-22T18:00:15.621Z,21.26
2023-04-22T18:02:47.415Z,21.28
2023-04-22T18:05:16.495Z,21.17
2023-04-22T18:07:46.221Z,20.71
2023-04-22T18:10:14.679Z,20.06
2023-04-22T18:12:43.330Z,20.38
2023-04-22T18:15:12.107Z,20.27
2023-04-22T18:17:40.497Z,20.48
2023-04-22T18:20:17.149Z,20.43
2023-04-22T18:22:48.248Z,20.40
2023-04-22T18:25:16.702Z,20.40
2023-04-22T18:27:44.976Z,20.43
2023-04-22T18:30:13.470Z,20.42
2023-04-22T18:32:41.747Z,20.43
2023-04-22T18:35:10.591Z,20.27
2023-04-22T18:37:38.764Z,19.80
2023-04-22T18:40:09.701Z,19.54
2023-04-22T18:42:38.243Z,19.53
2023-04-22T18:45:07.954Z,19.28
2023-04-22T18:47:35.849Z,19.05
2023-04-22T18:50:03.816Z,18.93
2023-04-22T18:52:31.712Z,18.87
2023-04-22T18:54:59.728Z,18.59
2023-04-22T18:57:28.978Z,18.58
2023-04-22T18:59:57.063Z,18.65
2023-04-22T19:02:25.608Z,18.74
2023-04-22T19:04:55.440Z,18.69
2023-04-22T19:07:26.738Z,18.17
2023-04-22T19:09:54.768Z,18.38
2023-04-22T19:12:24.415Z,18.35
2023-04-22T19:14:53.710Z,18.18
2023-04-22T19:17:22.385Z,18.47
2023-04-22T19:19:56.414Z,18.47
2023-04-22T19:22:24.756Z,18.17
2023-04-22T19:24:53.039Z,18.24
2023-04-22T19:27:21.428Z,18.53
2023-04-22T19:29:51.671Z,18.24
2023-04-22T19:32:21.891Z,18.13
2023-04-22T19:34:50.222Z,18.10
2023-04-22T19:37:18.683Z,18.30
2023-04-22T19:39:47.650Z,18.18
2023-04-22T19:42:15.742Z,17.89
2023-04-22T19:44:46.638Z,18.29
2023-04-22T19:47:15.366Z,18.43
2023-04-22T19:49:45.275Z,18.39
2023-04-22T19:52:15.606Z,17.96
2023-04-22T19:54:47.551Z,18.32
2023-04-22T19:57:16.134Z,18.43
2023-04-22T19:59:46.011Z,18.51
2023-04-22T20:02:16.928Z,18.51
2023-04-22T20:04:46.967Z,18.53
2023-04-22T20:07:16.383Z,18.49
2023-04-22T20:09:46.508Z,18.49
2023-04-22T20:12:14.985Z,18.44
2023-04-22T20:14:45.022Z,18.18
2023-04-22T20:17:13.254Z,18.19
2023-04-22T20:19:41.942Z,18.17
2023-04-22T20:22:13.668Z,18.29
2023-04-22T20:24:43.654Z,18.16
2023-04-22T20:27:12.357Z,18.18
2023-04-22T20:29:41.547Z,18.12
2023-04-22T20:32:11.333Z,18.23
2023-04-22T20:34:40.189Z,18.13
2023-04-22T20:37:13.852Z,18.23
2023-04-22T20:39:44.850Z,18.29
2023-04-22T20:42:15.511Z,18.33
2023-04-22T20:44:43.838Z,18.24
2023-04-22T20:47:12.383Z,18.17
2023-04-22T20:49:42.189Z,18.20
2023-04-22T20:52:15.059Z,18.23
2023-04-22T20:54:46.777Z,18.17
2023-04-22T20:57:18.837Z,18.03
2023-04-22T20:59:49.882Z,18.08
2023-04-22T21:02:27.988Z,17.98
2023-04-22T21:04:59.192Z,18.06
2023-04-22T21:07:31.570Z,18.02
2023-04-22T21:10:00.480Z,17.99
2023-04-22T21:12:32.459Z,17.98
2023-04-22T21:15:01.871Z,17.98
2023-04-22T21:17:32.151Z,17.55
2023-04-22T21:20:00.610Z,17.62
2023-04-22T21:22:33.256Z,17.60
2023-04-22T21:25:02.262Z,17.75
2023-04-22T21:27:31.209Z,17.62
2023-04-22T21:29:59.816Z,17.65
2023-04-22T21:32:29.407Z,17.74
2023-04-22T21:34:57.720Z,17.66
2023-04-22T21:37:26.039Z,17.75
2023-04-22T21:39:55.976Z,17.69
2023-04-22T21:42:24.005Z,17.52
2023-04-22T21:44:52.258Z,17.53
2023-04-22T21:47:20.826Z,17.37
2023-04-22T21:49:51.498Z,17.60
2023-04-22T21:52:20.027Z,17.38
2023-04-22T21:54:48.225Z,17.38
2023-04-22T21:57:17.605Z,17.09
2023-04-22T21:59:45.524Z,17.14
2023-04-22T22:02:13.459Z,17.36
2023-04-22T22:04:42.254Z,17.45
2023-04-22T22:07:12.231Z,17.38
2023-04-22T22:09:41.957Z,17.45
2023-04-22T22:12:12.107Z,17.44
2023-04-22T22:14:41.655Z,17.34
2023-04-22T22:17:10.129Z,17.35
2023-04-22T22:19:38.929Z,17.40
2023-04-22T22:22:06.980Z,17.33
2023-04-22T22:24:35.161Z,17.28
2023-04-22T22:27:03.312Z,17.27
2023-04-22T22:29:31.233Z,17.31
2023-04-22T22:32:00.757Z,17.33
2023-04-22T22:34:29.368Z,17.30
2023-04-22T22:36:57.451Z,17.23
2023-04-22T22:39:27.883Z,17.20
2023-04-22T22:41:56.228Z,17.23
2023-04-22T22:44:24.149Z,17.15
2023-04-22T22:46:52.240Z,17.11
2023-04-22T22:49:21.754Z,17.00
2023-04-22T22:51:49.726Z,17.04
2023-04-22T22:54:17.790Z,16.95
2023-04-22T22:56:45.793Z,17.06
2023-04-22T22:59:13.701Z,17.01
2023-04-22T23:01:41.722Z,16.94
2023-04-22T23:04:09.979Z,17.09
2023-04-22T23:06:39.482Z,17.13
2023-04-22T23:09:07.543Z,17.13
2023-04-22T23:11:35.502Z,17.18
2023-04-22T23:14:05.920Z,17.17
2023-04-22T23:16:34.464Z,17.16
2023-04-22T23:19:04.222Z,17.08
2023-04-22T23:21:33.172Z,16.99
2023-04-22T23:24:03.658Z,17.02
2023-04-22T23:26:32.131Z,16.85
2023-04-22T23:29:00.574Z,16.90
2023-04-22T23:31:30.806Z,16.88
2023-04-22T23:34:02.516Z,16.81
2023-04-22T23:36:31.473Z,16.86
2023-04-22T23:38:59.630Z,16.79
2023-04-22T23:41:29.024Z,16.75
2023-04-22T23:43:56.991Z,16.87
2023-04-22T23:46:25.124Z,16.80
2023-04-22T23:48:53.470Z,16.67
2023-04-22T23:51:21.674Z,16.67
2023-04-22T23:53:49.573Z,16.53
2023-04-22T23:56:21.151Z,16.59
2023-04-22T23:58:51.237Z,16.48
